Time;durP1;ratioP1;P1;durP2;ratioP2;P2;SDS_P1;SDS_P2;PMS_P1;PMS_P2;Temp;Humidity;BMP_temperature;BMP_pressure;BME280_temperature;BME280_humidity;BME280_pressure;Samples;Min_cycle;Max_cycle;Signal;HPM_P1;HPM_P2
2023/10/02 00:05:11;;;;;;;8.98;4.25;;;13.40;1.00;;;;;;5194198;28;20302;-62
2023/10/02 00:07:48;;;;;;;11.77;4.90;;;13.30;1.00;;;;;;5200171;28;20033;-62
2023/10/02 00:10:30;;;;;;;13.07;4.40;;;13.30;1.00;;;;;;5198041;28;20045;-60
2023/10/02 00:13:01;;;;;;;9.15;4.60;;;13.30;1.00;;;;;;5152341;28;20053;-60
2023/10/02 00:15:39;;;;;;;10.88;4.57;;;13.40;1.00;;;;;;5187687;28;20413;-60
2023/10/02 00:18:16;;;;;;;10.95;3.95;;;13.30;1.00;;;;;;5194539;28;20080;-62
2023/10/02 00:21:17;;;;;;;9.13;4.38;;;13.30;1.00;;;;;;5172857;28;20048;-61
2023/10/02 00:23:59;;;;;;;8.98;4.15;;;13.40;1.00;;;;;;5200825;28;20068;-60
2023/10/02 00:26:35;;;;;;;8.80;4.93;;;13.30;1.00;;;;;;5214197;28;20106;-61
2023/10/02 00:29:09;;;;;;;7.75;4.30;;;13.30;1.00;;;;;;5210983;28;20051;-60
2023/10/02 00:31:46;;;;;;;9.77;3.88;;;13.30;1.00;;;;;;5203115;28;20378;-61
2023/10/02 00:34:32;;;;;;;9.10;4.10;;;13.30;1.00;;;;;;5183376;28;20051;-59
2023/10/02 00:37:16;;;;;;;10.30;3.90;;;13.40;1.00;;;;;;5197713;28;20047;-61
2023/10/02 00:39:48;;;;;;;7.90;4.47;;;13.40;1.00;;;;;;5199080;28;20045;-59
2023/10/02 00:44:58;;;;;;;7.28;4.18;;;13.60;1.00;;;;;;5206194;28;20026;-61
2023/10/02 00:47:41;;;;;;;8.52;4.10;;;13.70;1.00;;;;;;5190354;28;20093;-60
2023/10/02 00:50:20;;;;;;;8.15;3.75;;;13.80;1.00;;;;;;5193675;28;20049;-61
2023/10/02 00:52:58;;;;;;;8.60;3.67;;;13.80;1.00;;;;;;5174339;28;20045;-61
2023/10/02 00:55:35;;;;;;;10.30;4.05;;;13.70;1.00;;;;;;5178148;28;20059;-60
2023/10/02 00:58:08;;;;;;;8.48;3.60;;;13.60;1.00;;;;;;5178725;28;20109;-61
2023/10/02 01:00:50;;;;;;;8.88;4.13;;;13.60;1.00;;;;;;5259627;23;20041;-70
2023/10/02 01:03:23;;;;;;;6.75;3.88;;;13.60;1.00;;;;;;5219747;28;20475;-68
2023/10/02 01:05:58;;;;;;;6.80;3.47;;;13.50;1.00;;;;;;5183843;28;20044;-70
2023/10/02 01:08:50;;;;;;;7.25;3.63;;;13.50;1.00;;;;;;5216170;28;20339;-70
2023/10/02 01:11:24;;;;;;;9.55;4.30;;;13.40;1.00;;;;;;5178242;28;20042;-68
2023/10/02 01:14:01;;;;;;;6.00;4.22;;;13.40;1.00;;;;;;5183866;28;20214;-68
2023/10/02 01:16:36;;;;;;;7.75;4.00;;;13.50;1.00;;;;;;5184151;28;20047;-70
2023/10/02 01:19:11;;;;;;;4.47;3.08;;;13.60;1.00;;;;;;5186998;28;20570;-68
2023/10/02 01:21:47;;;;;;;7.43;3.80;;;13.70;1.00;;;;;;5204870;28;20029;-68
2023/10/02 01:24:22;;;;;;;9.30;4.55;;;13.80;1.00;;;;;;5179226;28;20099;-68
2023/10/02 01:26:57;;;;;;;13.35;4.20;;;13.70;1.00;;;;;;5177405;28;20220;-68
2023/10/02 01:29:31;;;;;;;;;;;13.70;1.00;;;;;;5203672;28;20056;-68
2023/10/02 01:32:11;;;;;;;9.27;3.60;;;13.60;1.00;;;;;;5199055;28;19912;-68
2023/10/02 01:34:47;;;;;;;8.13;3.40;;;13.60;1.00;;;;;;5220178;28;20043;-68
2023/10/02 01:37:32;;;;;;;8.60;4.07;;;13.60;1.00;;;;;;5206868;28;20335;-69
2023/10/02 01:40:38;;;;;;;9.50;3.97;;;13.70;1.00;;;;;;5202550;28;20049;-68
2023/10/02 01:43:17;;;;;;;11.60;4.35;;;13.60;1.00;;;;;;5211549;28;20043;-69
2023/10/02 01:45:56;;;;;;;8.23;4.65;;;13.60;1.00;;;;;;5207775;28;20068;-70
2023/10/02 01:48:36;;;;;;;8.93;3.88;;;13.60;1.00;;;;;;5217985;28;20041;-68
2023/10/02 01:51:31;;;;;;;8.15;4.03;;;13.70;1.00;;;;;;5193457;28;20507;-68
2023/10/02 01:54:04;;;;;;;8.80;3.67;;;13.60;1.00;;;;;;5214585;28;20123;-71
2023/10/02 01:56:38;;;;;;;7.10;3.83;;;13.50;1.00;;;;;;5173999;28;20101;-69
2023/10/02 01:59:21;;;;;;;7.00;3.85;;;13.50;1.00;;;;;;5194982;28;20047;-68
2023/10/02 02:02:12;;;;;;;7.78;4.18;;;13.40;1.00;;;;;;5166675;28;20057;-69
2023/10/02 02:04:46;;;;;;;8.10;4.82;;;13.40;1.00;;;;;;5192758;28;20033;-70
2023/10/02 02:07:20;;;;;;;;;;;13.30;1.00;;;;;;5182291;28;20052;-68
2023/10/02 02:09:54;;;;;;;6.00;3.72;;;13.30;1.00;;;;;;5165151;28;19915;-68
2023/10/02 02:12:44;;;;;;;9.60;3.88;;;13.30;1.00;;;;;;5208335;28;20037;-69
2023/10/02 02:15:18;;;;;;;6.40;3.75;;;13.30;1.00;;;;;;5192667;28;20056;-69
2023/10/02 02:17:57;;;;;;;8.45;3.95;;;13.30;1.00;;;;;;5163036;28;20041;-69
2023/10/02 02:20:44;;;;;;;7.57;3.58;;;13.30;1.00;;;;;;5194261;28;20117;-69
2023/10/02 02:23:21;;;;;;;10.43;4.25;;;13.30;1.00;;;;;;5161452;28;20047;-69
2023/10/02 02:25:53;;;;;;;9.60;4.90;;;13.40;1.00;;;;;;5163639;28;20380;-68
2023/10/02 02:28:25;;;;;;;10.10;4.57;;;13.50;1.00;;;;;;5165873;28;20041;-69
2023/10/02 02:30:59;;;;;;;9.40;4.20;;;13.60;1.00;;;;;;5146766;28;20050;-69
2023/10/02 02:33:38;;;;;;;6.88;5.22;;;13.70;1.00;;;;;;5199196;28;20026;-69
2023/10/02 02:36:13;;;;;;;8.95;4.57;;;13.70;1.00;;;;;;5197362;28;20045;-68
2023/10/02 02:38:46;;;;;;;8.57;3.55;;;13.70;1.00;;;;;;5147300;28;20059;-68
2023/10/02 02:41:18;;;;;;;12.77;4.07;;;13.60;1.00;;;;;;5178978;28;20064;-69
2023/10/02 02:43:52;;;;;;;8.30;3.80;;;13.50;1.00;;;;;;5180604;28;20081;-68
2023/10/02 02:46:24;;;;;;;10.18;4.72;;;13.50;1.00;;;;;;5157333;28;20053;-68
2023/10/02 02:49:00;;;;;;;7.60;3.67;;;13.30;1.00;;;;;;5172550;28;20109;-68
2023/10/02 02:51:43;;;;;;;9.13;4.38;;;13.20;1.00;;;;;;5177652;28;20045;-68
2023/10/02 02:54:22;;;;;;;9.23;4.57;;;13.20;1.00;;;;;;5171101;28;21737;-68
2023/10/02 02:57:00;;;;;;;13.23;4.53;;;13.20;1.00;;;;;;5156944;28;20075;-69
2023/10/02 02:59:38;;;;;;;10.43;4.47;;;13.10;1.00;;;;;;5181043;28;20120;-68
2023/10/02 03:02:10;;;;;;;8.88;4.25;;;13.20;1.00;;;;;;5177031;28;20413;-69
2023/10/02 03:04:42;;;;;;;9.02;3.90;;;13.20;1.00;;;;;;5148591;28;20237;-68
2023/10/02 03:07:29;;;;;;;6.50;3.65;;;13.10;1.00;;;;;;5179035;28;20051;-68
2023/10/02 03:10:09;;;;;;;8.02;3.60;;;13.10;1.00;;;;;;5192351;28;20049;-69
2023/10/02 03:12:48;;;;;;;6.60;3.47;;;13.10;1.00;;;;;;5186756;28;20060;-68
2023/10/02 03:15:45;;;;;;;6.63;3.95;;;13.10;1.00;;;;;;5152801;28;20234;-68
2023/10/02 03:18:23;;;;;;;9.95;4.47;;;12.90;1.00;;;;;;5181176;28;20041;-68
2023/10/02 03:20:58;;;;;;;7.65;4.25;;;13.00;1.00;;;;;;5165523;28;20045;-69
2023/10/02 03:23:33;;;;;;;9.73;4.00;;;13.00;1.00;;;;;;5161927;28;20568;-69
2023/10/02 03:26:21;;;;;;;11.98;5.25;;;13.00;1.00;;;;;;5171081;28;20760;-69
2023/10/02 03:29:21;;;;;;;10.40;5.35;;;12.90;1.00;;;;;;5162601;28;20057;-67
2023/10/02 03:31:57;;;;;;;10.23;4.78;;;12.80;20.20;;;;;;5192700;28;20041;-68
2023/10/02 03:34:29;;;;;;;9.55;4.22;;;12.70;55.00;;;;;;5176562;28;20053;-69
2023/10/02 03:39:52;;;;;;;8.13;4.22;;;12.60;98.80;;;;;;5184680;28;20055;-69
2023/10/02 03:42:30;;;;;;;9.40;4.85;;;12.60;99.90;;;;;;5168799;28;20045;-69
2023/10/02 03:45:09;;;;;;;9.02;4.45;;;12.60;99.90;;;;;;5184090;28;20045;-68
2023/10/02 03:47:41;;;;;;;6.72;3.47;;;12.60;99.90;;;;;;5183940;28;20041;-68
2023/10/02 03:50:14;;;;;;;8.02;4.18;;;12.50;99.90;;;;;;5183280;28;20652;-69
2023/10/02 03:53:12;;;;;;;8.27;4.20;;;12.50;99.90;;;;;;5185864;28;20060;-68
2023/10/02 03:55:42;;;;;;;6.72;3.67;;;12.50;99.90;;;;;;5173930;28;20555;-69
2023/10/02 03:58:16;;;;;;;7.03;4.30;;;12.30;99.90;;;;;;5190624;28;20038;-69
2023/10/02 04:00:51;;;;;;;8.07;4.78;;;12.30;99.90;;;;;;5179698;28;20080;-68
2023/10/02 04:03:22;;;;;;;7.03;3.70;;;12.30;99.90;;;;;;5200103;28;20041;-68
2023/10/02 04:05:55;;;;;;;11.02;4.47;;;12.30;99.90;;;;;;5164188;28;20036;-69
2023/10/02 04:08:37;;;;;;;7.97;4.03;;;12.20;99.90;;;;;;5180234;28;20040;-68
2023/10/02 04:11:14;;;;;;;10.00;4.25;;;12.10;99.90;;;;;;5186066;28;20047;-70
2023/10/02 04:13:49;;;;;;;6.85;4.20;;;12.00;99.90;;;;;;5179924;28;20741;-69
2023/10/02 04:16:30;;;;;;;9.93;4.00;;;12.00;99.90;;;;;;5161938;28;20569;-69
2023/10/02 04:19:06;;;;;;;11.50;4.80;;;12.10;99.90;;;;;;5175633;28;20068;-69
2023/10/02 04:21:42;;;;;;;10.18;4.70;;;12.00;99.90;;;;;;5193142;28;20033;-70
2023/10/02 04:24:23;;;;;;;8.77;4.28;;;12.00;99.90;;;;;;5174855;28;20041;-68
2023/10/02 04:26:54;;;;;;;9.50;4.30;;;12.00;99.90;;;;;;5182640;28;21204;-68
2023/10/02 04:29:28;;;;;;;8.77;4.63;;;12.00;99.90;;;;;;5182743;28;20051;-70
2023/10/02 04:32:14;;;;;;;10.23;5.18;;;12.00;99.90;;;;;;5180631;28;20049;-68
2023/10/02 04:34:56;;;;;;;8.93;4.32;;;12.10;99.90;;;;;;5172228;28;20049;-68
2023/10/02 04:37:36;;;;;;;7.60;4.43;;;12.10;99.90;;;;;;5165335;28;20502;-68
2023/10/02 04:40:15;;;;;;;8.98;4.45;;;12.10;99.90;;;;;;5183981;28;20581;-67
2023/10/02 04:43:15;;;;;;;6.68;3.47;;;12.10;99.90;;;;;;5181656;28;20041;-68
2023/10/02 04:46:01;;;;;;;8.93;4.10;;;12.10;99.90;;;;;;5189673;28;20554;-68
2023/10/02 04:48:45;;;;;;;10.52;5.18;;;12.10;99.90;;;;;;5178583;28;20125;-69
2023/10/02 04:51:22;;;;;;;12.52;4.85;;;12.20;99.90;;;;;;5193015;28;20057;-68
2023/10/02 04:54:05;;;;;;;9.68;4.90;;;12.20;99.90;;;;;;5180026;28;20052;-68
2023/10/02 04:56:46;;;;;;;8.55;4.30;;;12.30;99.90;;;;;;5192619;28;20026;-69
2023/10/02 04:59:20;;;;;;;9.75;4.85;;;12.40;99.90;;;;;;5192255;28;20049;-70
2023/10/02 05:02:18;;;;;;;11.85;5.55;;;12.50;99.90;;;;;;5144598;28;20048;-70
2023/10/02 05:04:48;;;;;;;10.65;4.88;;;12.60;99.90;;;;;;5193500;28;20100;-70
2023/10/02 05:07:23;;;;;;;10.43;4.43;;;12.60;99.90;;;;;;5192798;28;20044;-69
2023/10/02 05:09:59;;;;;;;9.90;4.75;;;12.60;99.90;;;;;;5154109;28;20049;-69
2023/10/02 05:12:35;;;;;;;11.52;4.97;;;12.60;99.90;;;;;;5184569;28;20014;-67
2023/10/02 05:15:07;;;;;;;11.95;4.55;;;12.60;99.90;;;;;;5200038;28;20049;-67
2023/10/02 05:17:46;;;;;;;7.72;4.60;;;12.60;99.90;;;;;;5167471;28;20335;-67
2023/10/02 05:20:18;;;;;;;10.10;4.78;;;12.60;99.90;;;;;;5199826;28;20273;-68
2023/10/02 05:22:58;;;;;;;9.90;4.03;;;12.60;99.90;;;;;;5185505;28;20249;-69
2023/10/02 05:25:31;;;;;;;7.82;4.25;;;12.70;99.90;;;;;;5202931;28;20630;-68
2023/10/02 05:28:05;;;;;;;11.00;5.53;;;12.70;99.90;;;;;;5164855;28;20170;-68
2023/10/02 05:30:43;;;;;;;11.02;4.55;;;12.70;99.90;;;;;;5199250;28;20037;-69
2023/10/02 05:33:36;;;;;;;9.73;4.40;;;12.80;99.90;;;;;;5168334;28;20041;-69
2023/10/02 05:36:16;;;;;;;9.38;5.05;;;12.90;99.90;;;;;;5154068;28;20033;-70
2023/10/02 05:41:46;;;;;;;12.35;4.88;;;13.20;99.90;;;;;;5181208;28;20046;-69
2023/10/02 05:44:23;;;;;;;8.05;4.60;;;13.30;99.90;;;;;;5164917;28;20032;-70
2023/10/02 05:47:05;;;;;;;11.20;4.70;;;13.50;99.90;;;;;;5132687;28;20045;-71
2023/10/02 05:49:47;;;;;;;8.70;4.40;;;13.60;99.90;;;;;;5160195;28;20049;-70
2023/10/02 05:52:23;;;;;;;10.07;5.28;;;13.60;99.90;;;;;;5190833;28;20053;-69
2023/10/02 05:54:59;;;;;;;10.25;5.18;;;13.70;99.90;;;;;;5184876;28;20017;-68
2023/10/02 05:57:31;;;;;;;10.88;5.03;;;13.80;99.90;;;;;;5164909;28;20040;-68
2023/10/02 06:00:15;;;;;;;11.85;5.55;;;13.90;99.90;;;;;;5156666;28;20041;-68
2023/10/02 06:03:00;;;;;;;;;;;14.00;75.10;;;;;;5183715;28;20045;-68
2023/10/02 06:05:32;;;;;;;8.15;5.15;;;14.20;43.90;;;;;;5169431;28;19917;-68
2023/10/02 06:08:08;;;;;;;9.57;4.95;;;14.40;1.00;;;;;;5148041;28;20367;-69
2023/10/02 06:10:44;;;;;;;11.70;4.95;;;14.50;1.00;;;;;;5167330;28;20391;-68
2023/10/02 06:13:37;;;;;;;10.27;4.95;;;14.70;1.00;;;;;;5163350;28;20419;-68
2023/10/02 06:16:14;;;;;;;11.73;5.30;;;14.80;1.00;;;;;;5196165;28;20025;-70
2023/10/02 06:19:00;;;;;;;8.70;4.35;;;15.00;1.00;;;;;;5155486;28;20037;-68
2023/10/02 06:21:46;;;;;;;11.73;5.18;;;15.30;1.00;;;;;;5193358;28;20144;-68
2023/10/02 06:24:30;;;;;;;18.70;4.60;;;15.60;1.00;;;;;;5168640;28;20358;-69
2023/10/02 06:27:05;;;;;;;14.50;5.68;;;15.90;1.00;;;;;;5197922;28;20052;-68
2023/10/02 06:29:37;;;;;;;8.75;4.70;;;16.30;1.00;;;;;;5162772;28;20052;-68
2023/10/02 06:32:14;;;;;;;10.30;4.60;;;16.50;1.00;;;;;;5180878;28;20049;-68
2023/10/02 06:34:47;;;;;;;10.00;4.63;;;16.80;1.00;;;;;;5181905;28;20349;-67
2023/10/02 06:37:35;;;;;;;7.32;4.22;;;16.90;99.90;;;;;;5179108;28;20363;-68
2023/10/02 06:40:14;;;;;;;10.57;4.63;;;17.10;99.90;;;;;;5191680;28;20025;-68
2023/10/02 06:42:57;;;;;;;10.25;4.72;;;17.50;99.90;;;;;;5201174;28;20029;-68
2023/10/02 06:45:30;;;;;;;13.43;4.80;;;17.80;99.90;;;;;;5180458;28;20162;-68
2023/10/02 06:48:01;;;;;;;10.38;4.07;;;18.10;3.70;;;;;;5158048;28;20049;-69
2023/10/02 06:50:36;;;;;;;11.07;5.00;;;18.30;1.00;;;;;;5187388;28;20303;-69
2023/10/02 06:53:11;;;;;;;9.30;4.18;;;18.60;1.00;;;;;;5165027;28;20064;-69
2023/10/02 06:55:58;;;;;;;9.23;4.85;;;18.90;1.00;;;;;;5180805;28;20037;-70
2023/10/02 06:58:46;;;;;;;9.18;4.28;;;19.10;1.00;;;;;;5153453;28;20049;-69
2023/10/02 07:01:18;;;;;;;12.95;4.82;;;19.40;1.00;;;;;;5185457;28;20041;-70
2023/10/02 07:03:53;;;;;;;7.03;4.13;;;19.60;99.90;;;;;;5176295;28;20052;-70
2023/10/02 07:06:24;;;;;;;12.77;4.43;;;19.80;99.90;;;;;;5200102;28;20217;-69
2023/10/02 07:09:11;;;;;;;10.95;4.25;;;20.00;99.90;;;;;;5161532;28;20067;-70
2023/10/02 07:11:49;;;;;;;10.38;4.60;;;20.00;1.00;;;;;;5166339;28;20030;-69
2023/10/02 07:14:23;;;;;;;10.35;4.63;;;20.10;1.00;;;;;;5191196;28;20033;-69
2023/10/02 07:17:11;;;;;;;8.98;4.38;;;20.20;1.00;;;;;;5176932;28;20045;-69
2023/10/02 07:19:48;;;;;;;9.43;3.90;;;20.40;1.00;;;;;;5199431;28;20056;-69
2023/10/02 07:22:26;;;;;;;10.75;4.30;;;20.70;1.00;;;;;;5177196;28;20033;-69
2023/10/02 07:25:04;;;;;;;8.27;4.22;;;20.80;1.00;;;;;;5166987;28;20044;-71
2023/10/02 07:27:37;;;;;;;8.35;3.88;;;21.00;1.00;;;;;;5177961;28;20033;-70
2023/10/02 07:30:24;;;;;;;11.80;4.20;;;21.00;1.00;;;;;;5177845;28;20044;-70
2023/10/02 07:33:05;;;;;;;8.98;4.65;;;21.20;1.00;;;;;;5180328;28;20051;-70
2023/10/02 07:35:39;;;;;;;11.55;4.28;;;21.20;1.00;;;;;;5198203;28;20227;-70
2023/10/02 07:38:11;;;;;;;8.82;4.40;;;21.30;1.00;;;;;;5198140;28;20212;-70
2023/10/02 07:40:46;;;;;;;7.25;3.67;;;21.50;1.00;;;;;;5197781;28;20045;-70
2023/10/02 07:43:18;;;;;;;;;;;21.70;99.90;;;;;;5199243;28;20034;-70
2023/10/02 07:46:24;;;;;;;9.93;4.93;;;21.60;1.00;;;;;;5197387;28;19931;-70
2023/10/02 07:48:57;;;;;;;10.15;4.00;;;21.80;1.00;;;;;;5190151;28;20060;-70
2023/10/02 07:51:37;;;;;;;11.10;4.72;;;22.00;1.00;;;;;;5182815;28;20245;-70
2023/10/02 07:54:15;;;;;;;9.63;4.45;;;22.10;1.00;;;;;;5175981;28;20098;-71
2023/10/02 07:56:49;;;;;;;10.70;4.85;;;22.20;99.90;;;;;;5181274;28;20133;-70
2023/10/02 07:59:24;;;;;;;14.07;5.07;;;22.20;1.00;;;;;;5176380;28;20049;-70
2023/10/02 08:02:17;;;;;;;9.82;4.32;;;22.40;1.00;;;;;;5185325;28;20606;-69
2023/10/02 08:04:52;;;;;;;11.55;4.82;;;22.70;1.00;;;;;;5180782;28;20516;-69
2023/10/02 08:07:26;;;;;;;10.05;4.65;;;22.70;64.90;;;;;;5197166;28;20037;-69
2023/10/02 08:10:01;;;;;;;9.85;4.32;;;22.70;95.30;;;;;;5179119;28;20251;-70
2023/10/02 08:12:36;;;;;;;9.55;3.95;;;22.90;1.00;;;;;;5185208;28;20352;-70
2023/10/02 08:15:27;;;;;;;9.45;4.18;;;23.10;99.90;;;;;;5195951;28;20059;-69
2023/10/02 08:20:37;;;;;;;8.93;4.45;;;23.40;99.90;;;;;;5176122;28;20044;-71
2023/10/02 08:23:22;;;;;;;10.25;4.93;;;23.30;1.00;;;;;;5197702;28;20037;-69
2023/10/02 08:26:02;;;;;;;8.55;4.07;;;23.40;99.90;;;;;;5186072;28;20318;-69
2023/10/02 08:28:37;;;;;;;7.38;3.30;;;23.70;99.90;;;;;;5187266;28;20036;-70
2023/10/02 08:31:13;;;;;;;8.50;4.10;;;23.90;1.00;;;;;;5183129;28;20017;-70
2023/10/02 08:33:45;;;;;;;10.10;3.78;;;24.20;1.00;;;;;;5201814;28;20376;-69
2023/10/02 08:36:19;;;;;;;9.30;3.88;;;24.40;27.60;;;;;;5162883;28;20253;-69
2023/10/02 08:38:53;;;;;;;8.70;3.65;;;24.30;99.90;;;;;;5188185;28;20033;-69
2023/10/02 08:41:28;;;;;;;7.32;3.67;;;24.30;99.90;;;;;;5169160;28;20249;-70
2023/10/02 08:44:00;;;;;;;;;;;23.90;99.90;;;;;;5176276;28;20244;-70
2023/10/02 08:46:36;;;;;;;8.38;3.92;;;24.10;99.90;;;;;;5151333;28;19909;-70
2023/10/02 08:49:16;;;;;;;7.38;2.90;;;24.40;78.30;;;;;;5166068;28;20037;-70
2023/10/02 08:51:50;;;;;;;8.13;3.63;;;24.70;1.00;;;;;;5189941;28;20041;-70
2023/10/02 08:54:27;;;;;;;5.70;2.75;;;24.70;99.90;;;;;;5184184;28;20041;-70
2023/10/02 08:57:10;;;;;;;7.00;2.90;;;24.90;1.00;;;;;;5185922;28;20264;-70
2023/10/02 09:00:00;;;;;;;5.30;3.05;;;25.10;1.00;;;;;;5176658;28;20024;-70
2023/10/02 09:02:33;;;;;;;6.70;3.38;;;25.10;1.00;;;;;;5192099;28;20047;-71
2023/10/02 09:05:09;;;;;;;8.35;3.67;;;25.30;99.90;;;;;;5204891;28;20051;-69
2023/10/02 09:10:33;;;;;;;7.13;3.08;;;25.60;99.90;;;;;;5207961;28;20147;-69
2023/10/02 09:13:16;;;;;;;7.07;3.63;;;24.80;25.20;;;;;;5202027;28;20043;-69
2023/10/02 09:15:53;;;;;;;7.60;2.70;;;24.90;99.90;;;;;;5202928;28;20361;-70
2023/10/02 09:19:07;;;;;;;6.88;3.55;;;25.20;99.90;;;;;;5204838;28;20052;-70
2023/10/02 09:21:46;;;;;;;6.63;3.22;;;24.80;99.90;;;;;;5200245;28;20091;-69
2023/10/02 09:24:23;;;;;;;7.68;3.83;;;24.70;67.80;;;;;;5221498;28;20289;-70
2023/10/02 09:26:57;;;;;;;8.80;3.38;;;25.10;99.90;;;;;;5204384;28;20043;-71
2023/10/02 09:30:15;;;;;;;5.95;3.08;;;25.00;99.90;;;;;;5206965;28;20036;-70
2023/10/02 09:32:52;;;;;;;5.88;3.17;;;25.30;99.90;;;;;;5208764;28;20032;-70
2023/10/02 09:35:50;;;;;;;6.53;3.40;;;25.30;99.90;;;;;;5207975;28;20040;-70
2023/10/02 09:38:31;;;;;;;5.38;3.13;;;25.00;99.90;;;;;;5190300;28;20033;-70
2023/10/02 09:41:15;;;;;;;10.63;3.45;;;25.60;99.90;;;;;;5221877;28;20263;-70
2023/10/02 09:43:49;;;;;;;6.72;3.00;;;25.70;99.90;;;;;;5202323;28;20029;-70
2023/10/02 09:46:29;;;;;;;8.82;3.05;;;26.00;99.90;;;;;;5199989;28;20049;-70
2023/10/02 09:49:21;;;;;;;8.98;3.42;;;26.10;99.90;;;;;;5185935;28;20049;-70
2023/10/02 09:52:15;;;;;;;5.40;2.95;;;26.30;99.90;;;;;;5185157;28;20195;-71
2023/10/02 09:55:26;;;;;;;7.00;3.22;;;27.10;1.00;;;;;;5170059;28;20037;-71
2023/10/02 09:58:03;;;;;;;8.75;3.40;;;27.00;1.00;;;;;;5218850;28;20040;-71
2023/10/02 10:00:40;;;;;;;7.75;3.42;;;27.60;1.00;;;;;;5200327;28;20333;-70
2023/10/02 10:03:22;;;;;;;6.60;3.28;;;27.80;1.00;;;;;;5182709;28;20341;-70
2023/10/02 10:06:16;;;;;;;6.35;2.97;;;27.50;1.00;;;;;;5183331;28;20330;-71
2023/10/02 10:14:54;;;;;;;;;;;28.80;42.10;;;;;;5193449;28;20037;-71
2023/10/02 10:17:49;;;;;;;9.32;3.38;;;29.50;99.90;;;;;;5182210;28;19909;-71
2023/10/02 10:20:23;;;;;;;6.53;3.30;;;30.00;1.00;;;;;;5201175;28;20022;-71
2023/10/02 10:23:02;;;;;;;;;;;30.70;1.00;;;;;;5166547;28;20476;-71
2023/10/02 10:25:36;;;;;;;7.47;3.40;;;31.50;1.00;;;;;;5179367;28;20183;-71
2023/10/02 10:28:09;;;;;;;8.18;3.42;;;30.40;99.90;;;;;;5180772;28;20597;-71
2023/10/02 10:30:46;;;;;;;6.72;3.28;;;30.20;1.00;;;;;;5179668;28;20037;-70
2023/10/02 10:33:34;;;;;;;7.10;3.42;;;31.00;99.90;;;;;;5188801;28;20041;-70
2023/10/02 10:36:46;;;;;;;6.35;3.38;;;30.80;99.90;;;;;;5167402;28;20049;-70
2023/10/02 10:39:59;;;;;;;5.95;3.35;;;30.30;1.00;;;;;;5202261;28;20349;-72
2023/10/02 10:42:42;;;;;;;5.40;2.75;;;31.20;99.90;;;;;;5133631;28;20293;-71
2023/10/02 10:45:15;;;;;;;8.25;3.83;;;31.90;99.90;;;;;;5117669;28;20053;-70
2023/10/02 10:47:53;;;;;;;5.78;3.47;;;31.80;1.00;;;;;;5133412;28;20106;-70
2023/10/02 10:50:36;;;;;;;8.48;3.22;;;31.80;99.90;;;;;;5160407;28;20050;-70
2023/10/02 10:53:29;;;;;;;7.88;3.58;;;31.50;1.00;;;;;;5134701;28;20302;-70
2023/10/02 10:56:18;;;;;;;5.75;3.35;;;31.70;1.00;;;;;;5161149;28;20054;-70
2023/10/02 10:59:10;;;;;;;6.95;3.58;;;32.00;1.00;;;;;;5130268;28;20056;-70
2023/10/02 11:02:09;;;;;;;7.43;3.42;;;33.00;1.00;;;;;;5142573;28;20048;-71
2023/10/02 11:04:53;;;;;;;6.97;3.42;;;33.30;1.00;;;;;;5173658;28;20053;-71
2023/10/02 11:07:25;;;;;;;8.82;3.90;;;34.10;1.00;;;;;;5162018;28;20049;-70
2023/10/02 11:10:20;;;;;;;7.38;3.30;;;34.90;1.00;;;;;;5140465;28;20045;-70
2023/10/02 11:12:59;;;;;;;6.25;2.83;;;34.60;98.90;;;;;;5169540;28;20049;-71
2023/10/02 11:15:47;;;;;;;9.65;4.28;;;33.90;99.90;;;;;;5146540;28;20054;-70
2023/10/02 11:18:28;;;;;;;6.05;3.00;;;33.70;99.90;;;;;;5185511;28;20033;-71
2023/10/02 11:21:00;;;;;;;6.57;3.47;;;33.60;99.90;;;;;;5202417;28;20233;-71
2023/10/02 11:23:38;;;;;;;6.82;3.35;;;34.80;99.90;;;;;;5192531;28;20048;-71
2023/10/02 11:26:21;;;;;;;6.18;3.22;;;36.00;99.90;;;;;;5186981;28;20041;-71
2023/10/02 11:28:55;;;;;;;4.75;3.10;;;36.00;99.90;;;;;;5199253;28;20513;-70
2023/10/02 11:31:35;;;;;;;5.63;3.03;;;34.70;99.90;;;;;;5176113;28;20518;-70
2023/10/02 11:34:11;;;;;;;6.38;3.17;;;33.80;99.90;;;;;;5157522;28;20055;-71
2023/10/02 11:36:56;;;;;;;5.80;3.30;;;34.90;99.90;;;;;;5200352;28;20025;-71
2023/10/02 11:39:27;;;;;;;7.15;3.40;;;34.30;99.90;;;;;;5181604;28;20049;-70
2023/10/02 11:42:05;;;;;;;6.50;3.00;;;33.30;99.90;;;;;;5178484;28;20059;-70
2023/10/02 11:44:39;;;;;;;7.45;3.15;;;33.50;1.00;;;;;;5211999;28;20044;-71
2023/10/02 11:47:11;;;;;;;9.82;3.60;;;34.00;1.00;;;;;;5185335;28;20036;-70
2023/10/02 11:49:43;;;;;;;5.53;2.88;;;34.30;1.00;;;;;;5204793;28;20528;-71
2023/10/02 11:52:16;;;;;;;5.90;3.47;;;34.70;1.00;;;;;;5186360;28;20037;-71
2023/10/02 11:54:49;;;;;;;7.65;3.53;;;36.00;1.00;;;;;;5210397;28;20040;-70
2023/10/02 11:57:23;;;;;;;5.80;3.20;;;35.70;1.00;;;;;;5222765;28;20037;-71
2023/10/02 11:59:54;;;;;;;7.60;3.95;;;34.80;1.00;;;;;;5204685;28;20071;-71
2023/10/02 12:02:26;;;;;;;6.55;3.58;;;35.10;1.00;;;;;;5189378;28;20037;-72
2023/10/02 12:04:58;;;;;;;7.07;3.40;;;35.70;1.00;;;;;;5152538;28;20046;-71
2023/10/02 12:07:30;;;;;;;6.65;3.45;;;35.20;1.00;;;;;;5181048;28;20048;-71
2023/10/02 12:10:06;;;;;;;7.50;3.22;;;35.50;1.00;;;;;;5182316;28;20216;-70
2023/10/02 12:12:41;;;;;;;5.75;3.22;;;35.40;1.00;;;;;;5186293;28;20197;-69
2023/10/02 12:15:21;;;;;;;6.38;3.55;;;35.10;1.00;;;;;;5182269;28;20038;-70
2023/10/02 12:18:00;;;;;;;4.35;2.78;;;35.90;1.00;;;;;;5184267;28;20357;-71
2023/10/02 12:20:32;;;;;;;4.75;2.88;;;36.50;1.00;;;;;;5168025;28;20093;-70
2023/10/02 12:23:06;;;;;;;5.28;3.20;;;36.80;1.00;;;;;;5170926;28;20053;-70
2023/10/02 12:25:40;;;;;;;8.65;4.10;;;37.00;1.00;;;;;;5195089;28;20029;-70
2023/10/02 12:28:12;;;;;;;8.35;3.78;;;37.40;1.00;;;;;;5169792;28;20045;-71
2023/10/02 12:30:43;;;;;;;6.32;3.15;;;36.40;1.00;;;;;;5163840;28;20119;-71
2023/10/02 12:33:20;;;;;;;6.72;3.63;;;35.80;1.00;;;;;;5160437;28;20065;-70
2023/10/02 12:35:54;;;;;;;8.68;3.80;;;36.70;1.00;;;;;;5186400;28;20044;-71
2023/10/02 12:38:29;;;;;;;7.95;3.63;;;36.60;1.00;;;;;;5184215;28;20033;-71
2023/10/02 12:41:00;;;;;;;7.07;3.08;;;36.00;1.00;;;;;;5165881;28;20060;-70
2023/10/02 12:43:43;;;;;;;8.27;3.63;;;36.00;1.00;;;;;;5158686;28;20051;-70
2023/10/02 12:46:18;;;;;;;7.68;3.70;;;35.40;1.00;;;;;;5176834;28;20238;-71
2023/10/02 12:49:00;;;;;;;6.75;3.63;;;35.20;1.00;;;;;;5168612;28;20235;-72
2023/10/02 12:51:34;;;;;;;8.60;3.70;;;36.10;1.00;;;;;;5182411;28;20032;-70
2023/10/02 12:54:09;;;;;;;6.70;3.08;;;36.30;1.00;;;;;;5198625;28;20034;-71
2023/10/02 12:56:46;;;;;;;7.03;3.40;;;35.40;1.00;;;;;;5165437;28;20044;-70
2023/10/02 12:59:19;;;;;;;5.55;3.22;;;34.80;1.00;;;;;;5178187;28;20203;-70
2023/10/02 13:01:51;;;;;;;5.35;3.63;;;34.70;1.00;;;;;;5180861;28;20045;-70
2023/10/02 13:04:25;;;;;;;7.55;3.88;;;34.90;1.00;;;;;;5169347;28;20037;-71
2023/10/02 13:07:01;;;;;;;7.15;3.97;;;34.60;1.00;;;;;;5202937;28;20326;-71
2023/10/02 13:09:33;;;;;;;7.97;4.18;;;34.60;1.00;;;;;;5155586;28;20148;-70
2023/10/02 13:12:07;;;;;;;5.30;3.28;;;34.50;1.00;;;;;;5183119;28;20415;-69
2023/10/02 13:14:39;;;;;;;6.28;3.55;;;34.50;1.00;;;;;;5186192;28;20184;-71
2023/10/02 13:17:14;;;;;;;6.97;3.25;;;34.60;1.00;;;;;;5181671;28;20060;-70
2023/10/02 13:19:49;;;;;;;7.03;3.42;;;34.60;1.00;;;;;;5163600;28;20048;-70
2023/10/02 13:22:23;;;;;;;7.43;4.03;;;34.60;1.00;;;;;;5164550;28;20060;-70
2023/10/02 13:24:54;;;;;;;24.33;5.53;;;34.30;1.00;;;;;;5185713;28;20034;-70
2023/10/02 13:27:26;;;;;;;8.98;3.65;;;33.20;1.00;;;;;;5183408;28;20057;-70
2023/10/02 13:30:02;;;;;;;7.00;4.13;;;33.80;1.00;;;;;;5192283;28;20037;-71
2023/10/02 13:32:33;;;;;;;10.13;4.15;;;33.90;1.00;;;;;;5167771;28;20042;-70
2023/10/02 13:35:15;;;;;;;13.43;4.45;;;34.10;1.00;;;;;;5203574;28;20460;-71
2023/10/02 13:37:52;;;;;;;7.82;3.42;;;34.60;1.00;;;;;;5197604;28;20046;-71
2023/10/02 13:40:26;;;;;;;6.90;3.22;;;35.00;1.00;;;;;;5183438;28;20052;-70
2023/10/02 13:43:00;;;;;;;10.05;3.70;;;35.00;1.00;;;;;;5184969;28;20364;-71
2023/10/02 13:45:35;;;;;;;5.63;3.13;;;34.10;1.00;;;;;;5178086;28;20041;-70
2023/10/02 13:48:06;;;;;;;7.88;3.42;;;34.00;1.00;;;;;;5193973;28;20041;-71
2023/10/02 13:50:40;;;;;;;8.30;3.70;;;34.10;99.90;;;;;;5171101;28;20034;-70
2023/10/02 13:53:20;;;;;;;6.68;4.32;;;33.60;1.00;;;;;;5163255;28;20037;-70
2023/10/02 13:55:51;;;;;;;7.53;4.15;;;32.80;99.90;;;;;;5199821;28;20047;-72
2023/10/02 13:58:25;;;;;;;8.15;4.25;;;32.60;99.90;;;;;;5176231;28;20470;-70
2023/10/02 14:01:05;;;;;;;6.43;3.85;;;32.60;99.90;;;;;;5143795;28;20052;-70
2023/10/02 14:03:41;;;;;;;6.95;3.50;;;32.20;99.90;;;;;;5186905;28;20322;-69
2023/10/02 14:06:16;;;;;;;7.28;4.20;;;31.80;99.90;;;;;;5200669;28;20059;-71
2023/10/02 14:08:49;;;;;;;6.47;3.45;;;31.80;99.90;;;;;;5178857;28;20041;-70
2023/10/02 14:11:27;;;;;;;8.05;3.60;;;31.20;99.90;;;;;;5185823;28;20076;-69
2023/10/02 14:14:00;;;;;;;9.05;3.83;;;30.50;99.90;;;;;;5185111;28;20051;-69
2023/10/02 14:16:34;;;;;;;11.00;4.30;;;30.40;99.90;;;;;;5202244;28;20029;-70